createdAt,value
2022-09-07T00:00:58.525Z,100454.22
2022-09-07T00:03:25.314Z,100446.28
2022-09-07T00:05:52.708Z,100440.03
2022-09-07T00:08:24.389Z,100440.97
2022-09-07T00:10:53.331Z,100441.00
2022-09-07T00:13:20.965Z,100437.50
2022-09-07T00:15:47.493Z,100430.41
2022-09-07T00:18:16.567Z,100429.53
2022-09-07T00:20:43.372Z,100436.72
2022-09-07T00:23:10.252Z,100435.00
2022-09-07T00:25:40.468Z,100427.91
2022-09-07T00:28:08.312Z,100429.72
2022-09-07T00:30:41.673Z,100427.09
2022-09-07T00:33:08.626Z,100433.38
2022-09-07T00:35:40.290Z,100439.66
2022-09-07T00:38:07.018Z,100442.41
2022-09-07T00:40:33.645Z,100437.97
2022-09-07T00:43:00.424Z,100449.66
2022-09-07T00:45:27.285Z,100450.56
2022-09-07T00:48:27.097Z,100459.50
2022-09-07T00:50:58.610Z,100458.66
2022-09-07T00:53:30.576Z,100461.38
2022-09-07T00:55:59.271Z,100459.66
2022-09-07T00:58:27.322Z,100460.56
2022-09-07T01:00:55.231Z,100465.94
2022-09-07T01:03:30.986Z,100456.19
2022-09-07T01:06:11.849Z,100469.56
2022-09-07T01:08:38.873Z,100465.19
2022-09-07T01:11:06.208Z,100453.56
2022-09-07T01:13:32.816Z,100451.78
2022-09-07T01:16:31.634Z,100454.50
2022-09-07T01:19:25.705Z,100446.50
2022-09-07T01:22:29.556Z,100449.25
2022-09-07T01:25:09.451Z,100451.91
2022-09-07T01:27:45.229Z,100452.84
2022-09-07T01:30:14.659Z,100443.97
2022-09-07T01:32:50.736Z,100444.88
2022-09-07T01:35:47.894Z,100429.72
2022-09-07T01:38:54.573Z,100444.00
2022-09-07T01:41:42.803Z,100449.34
2022-09-07T01:44:19.585Z,100445.81
2022-09-07T01:47:04.139Z,100443.22
2022-09-07T01:49:40.181Z,100451.25
2022-09-07T01:52:16.009Z,100453.91
2022-09-07T01:54:49.258Z,100451.28
2022-09-07T01:57:25.155Z,100450.38
2022-09-07T02:00:04.518Z,100444.16
2022-09-07T02:02:51.065Z,100435.28
2022-09-07T02:05:30.108Z,100437.09
2022-09-07T02:08:07.790Z,100427.31
2022-09-07T02:10:48.381Z,100422.03
2022-09-07T02:13:22.660Z,100419.41
2022-09-07T02:15:59.829Z,100411.44
2022-09-07T02:18:31.149Z,100411.50
2022-09-07T02:20:59.870Z,100411.56
2022-09-07T02:23:30.644Z,100407.16
2022-09-07T02:26:02.600Z,100399.16
2022-09-07T02:28:38.237Z,100399.19
2022-09-07T02:31:05.229Z,100407.25
2022-09-07T02:33:31.870Z,100409.97
2022-09-07T02:35:58.820Z,100401.16
2022-09-07T02:38:25.637Z,100407.44
2022-09-07T02:40:57.315Z,100401.19
2022-09-07T02:43:25.468Z,100386.97
2022-09-07T02:45:54.970Z,100388.75
2022-09-07T02:48:43.111Z,100383.41
2022-09-07T02:51:30.404Z,100385.16
2022-09-07T02:54:18.933Z,100378.09
2022-09-07T02:57:15.925Z,100383.44
2022-09-07T02:59:49.911Z,100372.78
2022-09-07T03:02:29.265Z,100366.56
2022-09-07T03:05:05.411Z,100372.84
2022-09-07T03:07:44.316Z,100361.25
2022-09-07T03:10:13.650Z,100362.19
2022-09-07T03:12:41.976Z,100362.19
2022-09-07T03:15:11.545Z,100359.50
2022-09-07T03:17:38.790Z,100366.66
2022-09-07T03:20:05.623Z,100355.03
2022-09-07T03:22:33.849Z,100356.84
2022-09-07T03:25:00.896Z,100354.22
2022-09-07T03:27:27.421Z,100359.56
2022-09-07T03:29:54.040Z,100350.69
2022-09-07T03:32:20.575Z,100344.47
2022-09-07T03:34:48.509Z,100347.16
2022-09-07T03:37:15.213Z,100336.47
2022-09-07T03:39:41.889Z,100331.13
2022-09-07T03:42:08.623Z,100335.59
2022-09-07T03:44:35.091Z,100330.25
2022-09-07T03:47:01.699Z,100329.41
2022-09-07T03:49:28.189Z,100339.16
2022-09-07T03:51:57.097Z,100324.94
2022-09-07T03:54:26.570Z,100331.25
2022-09-07T03:56:53.111Z,100326.78
2022-09-07T03:59:21.769Z,100322.31
2022-09-07T04:01:48.636Z,100317.84
2022-09-07T04:04:15.240Z,100321.38
2022-09-07T04:06:41.828Z,100316.94
2022-09-07T04:09:13.568Z,100318.72
2022-09-07T04:11:40.544Z,100321.38
2022-09-07T04:14:08.391Z,100321.38
2022-09-07T04:16:35.350Z,100340.91
2022-09-07T04:19:01.924Z,100389.00
2022-09-07T04:21:30.107Z,100442.44
2022-09-07T04:23:56.912Z,100433.53
2022-09-07T04:26:34.577Z,100382.78
2022-09-07T04:29:02.719Z,100423.75
2022-09-07T04:31:29.701Z,100463.81
2022-09-07T04:33:56.937Z,100471.78
2022-09-07T04:36:24.914Z,100406.69
2022-09-07T04:38:57.103Z,100453.00
2022-09-07T04:41:24.291Z,100426.19
2022-09-07T04:43:54.881Z,100413.66
2022-09-07T04:46:26.527Z,100397.53
2022-09-07T04:48:58.361Z,100402.81
2022-09-07T04:51:27.416Z,100411.69
2022-09-07T04:53:55.638Z,100397.34
2022-09-07T04:56:23.388Z,100415.09
2022-09-07T04:58:50.363Z,100404.38
2022-09-07T05:01:20.152Z,100415.03
2022-09-07T05:03:47.508Z,100406.03
2022-09-07T05:06:16.277Z,100419.38
2022-09-07T05:08:45.776Z,100416.63
2022-09-07T05:11:13.308Z,100425.53
2022-09-07T05:13:39.809Z,100441.56
2022-09-07T05:16:18.391Z,100440.63
2022-09-07T05:18:45.359Z,100442.34
2022-09-07T05:21:15.166Z,100429.84
2022-09-07T05:23:42.770Z,100419.09
2022-09-07T05:26:10.250Z,100421.75
2022-09-07T05:28:37.519Z,100419.09
2022-09-07T05:31:20.254Z,100411.03
2022-09-07T05:36:36.051Z,100406.59
2022-09-07T05:39:03.612Z,100412.81
2022-09-07T05:41:30.184Z,100409.22
2022-09-07T05:46:43.740Z,100419.88
2022-09-07T05:49:10.506Z,100423.44
2022-09-07T05:51:37.329Z,100429.59
2022-09-07T05:54:04.279Z,100440.28
2022-09-07T05:56:34.282Z,100433.94
2022-09-07T05:59:00.785Z,100430.25
2022-09-07T06:01:27.316Z,100431.06
2022-09-07T06:03:53.880Z,100416.69
2022-09-07T06:06:20.789Z,100419.25
2022-09-07T06:08:50.405Z,100425.38
2022-09-07T06:11:19.825Z,100422.56
2022-09-07T06:13:46.508Z,100428.69
2022-09-07T06:16:14.671Z,100420.50
2022-09-07T06:18:44.428Z,100417.75
2022-09-07T06:21:16.877Z,100418.47
2022-09-07T06:23:44.574Z,100401.38
2022-09-07T06:26:11.636Z,100393.19
2022-09-07T06:28:40.518Z,100381.41
2022-09-07T06:31:09.065Z,100379.44
2022-09-07T06:33:36.133Z,100377.41
2022-09-07T06:36:05.749Z,100376.34
2022-09-07T06:38:33.938Z,100374.34
2022-09-07T06:43:59.213Z,100375.75
2022-09-07T06:49:12.519Z,100352.28
2022-09-07T06:51:39.057Z,100338.75
2022-09-07T06:56:52.088Z,100334.97
2022-09-07T06:59:18.701Z,100333.94
2022-09-07T07:01:45.589Z,100333.69
2022-09-07T07:04:13.172Z,100332.59
2022-09-07T07:06:40.029Z,100335.94
2022-09-07T07:09:08.644Z,100328.47
2022-09-07T07:11:37.148Z,100335.28
2022-09-07T07:14:04.178Z,100337.66
2022-09-07T07:16:31.131Z,100330.22
2022-09-07T07:18:58.062Z,100330.88
2022-09-07T07:21:24.745Z,100339.63
2022-09-07T07:23:53.096Z,100344.78
2022-09-07T07:26:22.201Z,100346.34
2022-09-07T07:29:06.548Z,100352.38
2022-09-07T07:31:33.699Z,100365.72
2022-09-07T07:34:00.341Z,100376.47
2022-09-07T07:36:27.315Z,100410.66
2022-09-07T07:44:17.738Z,100477.63
2022-09-07T07:46:47.693Z,100483.09
2022-09-07T07:49:14.329Z,100465.31
2022-09-07T07:54:27.237Z,100397.38
2022-09-07T07:56:53.688Z,100367.94
2022-09-07T07:59:20.206Z,100348.34
2022-09-07T08:01:46.786Z,100343.94
2022-09-07T08:04:13.566Z,100328.72
2022-09-07T08:06:42.790Z,100332.25
2022-09-07T08:09:09.612Z,100321.34
2022-09-07T08:11:36.033Z,100312.44
2022-09-07T08:14:05.864Z,100305.38
2022-09-07T08:16:33.016Z,100293.88
2022-09-07T08:18:59.597Z,100315.28
2022-09-07T08:21:26.102Z,100328.44
2022-09-07T08:23:52.612Z,100337.09
2022-09-07T08:26:19.094Z,100344.78
2022-09-07T08:28:46.293Z,100352.56
2022-09-07T08:31:15.234Z,100353.28
2022-09-07T08:33:42.459Z,100361.97
2022-09-07T08:36:12.812Z,100361.00
2022-09-07T08:38:39.713Z,100368.91
2022-09-07T08:41:26.537Z,100374.16
2022-09-07T08:43:59.615Z,100368.47
2022-09-07T08:46:42.352Z,100367.25
2022-09-07T08:49:21.690Z,100385.75
2022-09-07T08:51:56.143Z,100374.50
2022-09-07T08:54:22.763Z,100371.38
2022-09-07T08:59:57.623Z,100358.84
2022-09-07T09:02:27.401Z,100353.19
2022-09-07T09:07:49.860Z,100352.28
2022-09-07T09:10:28.008Z,100348.50
2022-09-07T09:13:12.530Z,100340.94
2022-09-07T09:15:58.332Z,100347.75
2022-09-07T09:18:39.656Z,100346.63
2022-09-07T09:21:14.548Z,100342.84
2022-09-07T09:23:43.553Z,100342.78
2022-09-07T09:26:31.298Z,100345.47
2022-09-07T09:28:58.034Z,100349.88
2022-09-07T09:31:32.925Z,100351.47
2022-09-07T09:34:05.385Z,100355.00
2022-09-07T09:36:34.706Z,100356.72
2022-09-07T09:39:01.312Z,100362.00
2022-09-07T09:41:37.133Z,100352.16
2022-09-07T09:44:04.087Z,100359.28
2022-09-07T09:46:37.449Z,100352.88
2022-09-07T09:49:15.104Z,100342.03
2022-09-07T09:54:42.087Z,100358.25
2022-09-07T09:57:15.665Z,100368.22
2022-09-07T10:00:00.387Z,100355.78
2022-09-07T10:05:36.382Z,100356.88
2022-09-07T10:08:14.778Z,100353.41
2022-09-07T10:11:10.316Z,100363.28
2022-09-07T10:13:41.729Z,100363.50
2022-09-07T10:16:10.256Z,100356.38
2022-09-07T10:18:53.532Z,100359.00
2022-09-07T10:21:24.729Z,100360.47
2022-09-07T10:24:00.260Z,100360.34
2022-09-07T10:26:28.508Z,100353.03
2022-09-07T10:29:29.697Z,100354.59
2022-09-07T10:32:40.847Z,100349.19
2022-09-07T10:35:17.867Z,100354.31
2022-09-07T10:38:14.987Z,100356.84
2022-09-07T10:41:04.084Z,100346.78
2022-09-07T10:43:48.371Z,100349.25
2022-09-07T10:50:21.907Z,100346.19
2022-09-07T10:53:39.055Z,100345.22
2022-09-07T10:56:17.651Z,100341.63
2022-09-07T10:59:04.684Z,100336.88
2022-09-07T11:01:50.126Z,100341.16
2022-09-07T11:07:25.122Z,100341.53
2022-09-07T11:09:55.253Z,100334.97
2022-09-07T11:12:30.390Z,100344.56
2022-09-07T11:15:04.100Z,100343.88
2022-09-07T11:17:37.793Z,100334.47
2022-09-07T11:20:18.281Z,100336.81
2022-09-07T11:22:52.034Z,100334.63
2022-09-07T11:25:31.120Z,100349.31
2022-09-07T11:28:25.087Z,100340.34
2022-09-07T11:31:00.306Z,100337.53
2022-09-07T11:33:35.135Z,100334.75
2022-09-07T11:36:12.264Z,100333.75
2022-09-07T11:38:45.478Z,100319.38
2022-09-07T11:41:40.746Z,100327.16
2022-09-07T11:44:17.266Z,100328.19
2022-09-07T11:46:47.991Z,100318.28
2022-09-07T11:49:21.204Z,100322.50
2022-09-07T11:52:24.496Z,100315.56
2022-09-07T11:54:57.162Z,100326.38
2022-09-07T11:57:35.198Z,100320.16
2022-09-07T12:00:23.158Z,100314.38
2022-09-07T12:03:04.811Z,100317.88
2022-09-07T12:05:49.557Z,100314.13
2022-09-07T12:08:47.190Z,100312.84
2022-09-07T12:11:25.566Z,100308.78
2022-09-07T12:14:24.872Z,100303.56
2022-09-07T12:17:02.709Z,100307.00
2022-09-07T12:19:29.271Z,100301.81
2022-09-07T12:21:59.749Z,100295.31
2022-09-07T12:24:44.477Z,100292.88
2022-09-07T12:27:20.444Z,100287.38
2022-09-07T12:30:11.465Z,100282.28
2022-09-07T12:32:55.857Z,100288.69
2022-09-07T12:35:29.876Z,100281.47
2022-09-07T12:37:57.522Z,100282.38
2022-09-07T12:40:27.116Z,100276.25
2022-09-07T12:43:12.354Z,100274.22
2022-09-07T12:45:38.763Z,100272.13
2022-09-07T12:48:24.790Z,100270.09
2022-09-07T12:51:06.442Z,100260.66
2022-09-07T12:54:05.202Z,100257.69
2022-09-07T12:56:44.212Z,100263.81
2022-09-07T12:59:34.819Z,100261.00
2022-09-07T13:02:10.513Z,100259.03
2022-09-07T13:04:50.198Z,100252.38
2022-09-07T13:08:07.177Z,100255.59
2022-09-07T13:10:38.022Z,100246.66
2022-09-07T13:13:04.436Z,100238.34
2022-09-07T13:15:38.377Z,100241.22
2022-09-07T13:18:05.117Z,100242.31
2022-09-07T13:20:36.371Z,100242.31
2022-09-07T13:23:23.466Z,100243.09
2022-09-07T13:25:52.859Z,100252.88
2022-09-07T13:28:27.301Z,100237.66
2022-09-07T13:31:27.909Z,100236.88
2022-09-07T13:33:54.607Z,100236.19
2022-09-07T13:36:37.235Z,100236.28
2022-09-07T13:39:09.537Z,100245.59
2022-09-07T13:41:42.809Z,100236.69
2022-09-07T13:44:25.025Z,100236.59
2022-09-07T13:47:17.661Z,100228.91
2022-09-07T13:50:11.873Z,100223.00
2022-09-07T13:53:07.314Z,100223.84
2022-09-07T13:55:56.171Z,100219.28
2022-09-07T13:58:35.132Z,100219.47
2022-09-07T14:01:08.088Z,100219.41
2022-09-07T14:03:45.752Z,100225.00
2022-09-07T14:06:21.445Z,100211.69
2022-09-07T14:08:50.298Z,100203.63
2022-09-07T14:11:37.075Z,100213.84
2022-09-07T14:14:12.215Z,100224.13
2022-09-07T14:16:38.967Z,100217.44
2022-09-07T14:19:24.549Z,100213.78
2022-09-07T14:22:08.179Z,100212.22
2022-09-07T14:24:46.517Z,100209.28
2022-09-07T14:27:31.653Z,100214.25
2022-09-07T14:30:26.592Z,100204.00
2022-09-07T14:33:20.430Z,100208.63
2022-09-07T14:35:47.879Z,100203.09
2022-09-07T14:41:14.223Z,100200.16
2022-09-07T14:43:55.394Z,100195.41
2022-09-07T14:46:28.036Z,100204.47
2022-09-07T14:48:57.806Z,100202.13
2022-09-07T14:51:35.265Z,100207.72
2022-09-07T14:54:05.822Z,100204.25
2022-09-07T14:56:41.573Z,100202.28
2022-09-07T14:59:30.546Z,100200.19
2022-09-07T15:02:19.046Z,100197.09
2022-09-07T15:04:47.086Z,100192.91
2022-09-07T15:07:39.603Z,100199.75
2022-09-07T15:10:23.873Z,100195.00
2022-09-07T15:12:53.691Z,100197.47
2022-09-07T15:15:26.820Z,100187.25
2022-09-07T15:18:05.891Z,100196.97
2022-09-07T15:20:45.022Z,100191.38
2022-09-07T15:23:17.320Z,100185.69
2022-09-07T15:25:50.978Z,100191.50
2022-09-07T15:34:12.164Z,100172.97
2022-09-07T15:36:41.296Z,100170.66
2022-09-07T15:39:17.083Z,100173.78
2022-09-07T15:41:43.636Z,100166.97
2022-09-07T15:44:10.227Z,100161.03
2022-09-07T15:46:37.307Z,100180.13
2022-09-07T15:49:03.954Z,100183.88
2022-09-07T15:54:17.590Z,100187.53
2022-09-07T15:57:48.049Z,100180.22
2022-09-07T15:59:30.711Z,100184.97
2022-09-07T16:01:58.154Z,100190.09
2022-09-07T16:04:25.153Z,100188.09
2022-09-07T16:06:51.726Z,100212.44
2022-09-07T16:09:21.882Z,100223.34
2022-09-07T16:11:50.213Z,100217.38
2022-09-07T16:14:17.865Z,100218.75
2022-09-07T16:19:34.607Z,100204.28
2022-09-07T16:22:01.829Z,100203.28
2022-09-07T16:24:28.383Z,100204.28
2022-09-07T16:26:55.053Z,100199.84
2022-09-07T16:29:21.538Z,100194.38
2022-09-07T16:34:34.836Z,100193.00
2022-09-07T16:37:01.376Z,100196.22
2022-09-07T16:39:29.076Z,100211.06
2022-09-07T16:41:55.934Z,100209.66
2022-09-07T16:44:22.828Z,100197.31
2022-09-07T16:46:50.416Z,100183.94
2022-09-07T16:49:17.674Z,100179.56
2022-09-07T16:51:45.750Z,100186.94
2022-09-07T16:54:13.863Z,100186.25
2022-09-07T16:56:40.521Z,100197.28
2022-09-07T16:59:09.694Z,100193.84
2022-09-07T17:01:38.017Z,100201.28
2022-09-07T17:04:10.447Z,100197.78
2022-09-07T17:06:38.078Z,100215.03
2022-09-07T17:09:04.886Z,100221.53
2022-09-07T17:11:33.698Z,100219.94
2022-09-07T17:14:01.220Z,100226.22
2022-09-07T17:16:34.205Z,100220.00
2022-09-07T17:21:51.777Z,100201.06
2022-09-07T17:24:19.688Z,100193.31
2022-09-07T17:26:46.549Z,100205.53
2022-09-07T17:29:13.386Z,100224.25
2022-09-07T17:34:26.963Z,100312.94
2022-09-07T18:38:37.954Z,100302.91
2022-09-07T18:41:10.422Z,100305.50
2022-09-07T18:43:38.699Z,100300.06
2022-09-07T18:46:17.724Z,100290.09
2022-09-07T18:48:45.034Z,100288.16
2022-09-07T18:51:12.338Z,100285.34
2022-09-07T18:53:39.428Z,100277.19
2022-09-07T18:56:26.655Z,100270.88
2022-09-07T18:58:56.937Z,100258.41
2022-09-07T19:03:27.043Z,100268.31
2022-09-07T19:07:00.567Z,100282.75
2022-09-07T19:09:27.082Z,100281.09
2022-09-07T19:13:31.378Z,100263.34
2022-09-07T19:16:12.616Z,100265.09
2022-09-07T19:18:46.849Z,100257.03
2022-09-07T19:21:16.808Z,100252.47
2022-09-07T19:53:48.607Z,100242.19
2022-09-07T19:56:21.885Z,100233.34
2022-09-07T19:58:49.723Z,100224.38
2022-09-07T20:09:22.609Z,100228.31
2022-09-07T20:11:49.410Z,100225.72
2022-09-07T20:14:16.769Z,100224.94
2022-09-07T20:16:43.697Z,100233.00
2022-09-07T20:19:11.947Z,100219.66
2022-09-07T20:21:38.606Z,100220.50
2022-09-07T20:24:07.560Z,100216.91
2022-09-07T20:26:34.152Z,100207.97
2022-09-07T20:31:47.681Z,100215.81
2022-09-07T20:34:14.398Z,100226.53
2022-09-07T20:36:41.350Z,100223.00
2022-09-07T20:39:08.102Z,100230.06
2022-09-07T20:41:35.410Z,100222.84
2022-09-07T20:44:05.593Z,100230.00
2022-09-07T20:46:32.753Z,100216.50
2022-09-07T20:48:59.665Z,100222.75
2022-09-07T20:51:26.395Z,100223.59
2022-09-07T20:53:52.974Z,100225.34
2022-09-07T20:56:22.391Z,100221.72
2022-09-07T20:58:53.596Z,100219.03
2022-09-07T21:01:21.254Z,100215.41
2022-09-07T21:03:50.595Z,100215.50
2022-09-07T21:06:17.961Z,100206.63
2022-09-07T21:08:45.648Z,100213.81
2022-09-07T21:11:18.315Z,100213.91
2022-09-07T21:13:46.653Z,100232.72
2022-09-07T21:16:16.229Z,100252.63
2022-09-07T21:18:44.376Z,100248.34
2022-09-07T21:21:20.366Z,100251.34
2022-09-07T21:23:47.804Z,100247.22
2022-09-07T21:26:14.500Z,100254.81
2022-09-07T21:28:41.033Z,100264.84
2022-09-07T21:31:09.186Z,100277.53
2022-09-07T21:33:37.619Z,100275.06
2022-09-07T21:36:09.856Z,100277.94
2022-09-07T21:38:37.374Z,100274.41
2022-09-07T21:41:08.581Z,100285.25
2022-09-07T21:43:35.275Z,100288.91
2022-09-07T21:46:08.157Z,100279.06
2022-09-07T21:48:35.462Z,100272.81
2022-09-07T21:51:02.290Z,100273.78
2022-09-07T21:53:29.129Z,100270.28
2022-09-07T21:55:57.091Z,100257.91
2022-09-07T21:58:23.732Z,100249.09
2022-09-07T22:00:50.646Z,100255.38
2022-09-07T22:03:17.649Z,100250.03
2022-09-07T22:05:44.338Z,100255.31
2022-09-07T22:08:10.985Z,100254.31
2022-09-07T22:10:37.526Z,100246.22
2022-09-07T22:13:04.092Z,100238.16
2022-09-07T22:15:33.640Z,100225.56
2022-09-07T22:18:00.257Z,100225.56
2022-09-07T22:20:26.843Z,100224.63
2022-09-07T22:22:53.513Z,100227.25
2022-09-07T22:25:20.125Z,100230.03
2022-09-07T22:27:46.822Z,100229.13
2022-09-07T22:30:13.729Z,100221.16
2022-09-07T22:32:40.250Z,100214.06
2022-09-07T22:35:07.162Z,100213.97
2022-09-07T22:37:33.905Z,100206.78
2022-09-07T22:40:00.473Z,100197.81
2022-09-07T22:42:27.039Z,100196.81
2022-09-07T22:44:53.528Z,100197.69
2022-09-07T22:47:20.086Z,100200.34
2022-09-07T22:49:46.697Z,100194.13
2022-09-07T22:52:13.397Z,100182.53
2022-09-07T22:54:39.885Z,100179.81
2022-09-07T22:57:06.518Z,100178.97
2022-09-07T22:59:33.030Z,100173.63
2022-09-07T23:01:59.630Z,100173.66
2022-09-07T23:04:31.412Z,100154.03
2022-09-07T23:06:58.389Z,100157.59
2022-09-07T23:09:24.933Z,100163.00
2022-09-07T23:11:51.714Z,100153.25
2022-09-07T23:14:22.013Z,100155.06
2022-09-07T23:16:49.266Z,100154.16
2022-09-07T23:19:17.759Z,100145.34
2022-09-07T23:21:44.585Z,100144.47
2022-09-07T23:24:16.545Z,100145.41
2022-09-07T23:26:43.835Z,100147.28
2022-09-07T23:29:12.826Z,100142.91
2022-09-07T23:31:40.356Z,100146.56
2022-09-07T23:34:07.794Z,100133.22
2022-09-07T23:36:34.707Z,100131.44
2022-09-07T23:39:01.357Z,100129.69
2022-09-07T23:41:28.760Z,100133.31
2022-09-07T23:43:55.988Z,100127.09
2022-09-07T23:46:22.730Z,100131.59
2022-09-07T23:48:50.182Z,100122.78
2022-09-07T23:51:21.264Z,100118.28
2022-09-07T23:53:50.567Z,100106.78
2022-09-07T23:56:17.213Z,100114.00
2022-09-07T23:58:44.024Z,100107.84
